createdAt,value
2022-11-20T00:01:40.502Z,-2.54
2022-11-20T00:04:09.752Z,-2.53
2022-11-20T00:06:37.436Z,-2.51
2022-11-20T00:09:06.347Z,-2.47
2022-11-20T00:11:33.926Z,-2.44
2022-11-20T00:14:03.106Z,-2.42
2022-11-20T00:16:32.897Z,-2.41
2022-11-20T00:19:00.694Z,-2.40
2022-11-20T00:21:29.509Z,-2.42
2022-11-20T00:23:58.111Z,-2.43
2022-11-20T00:26:27.373Z,-2.44
2022-11-20T00:28:57.242Z,-2.46
2022-11-20T00:31:25.450Z,-2.48
2022-11-20T00:33:53.591Z,-2.48
2022-11-20T00:36:24.024Z,-2.49
2022-11-20T00:38:56.423Z,-2.50
2022-11-20T00:41:25.351Z,-2.48
2022-11-20T00:43:54.383Z,-2.48
2022-11-20T00:46:24.559Z,-2.46
2022-11-20T00:48:52.478Z,-2.46
2022-11-20T00:51:22.409Z,-2.47
2022-11-20T00:53:50.421Z,-2.47
2022-11-20T00:56:19.971Z,-2.47
2022-11-20T00:58:49.415Z,-2.45
2022-11-20T01:01:19.919Z,-2.44
2022-11-20T01:03:49.451Z,-2.41
2022-11-20T01:06:19.883Z,-2.38
2022-11-20T01:08:48.445Z,-2.34
2022-11-20T01:11:18.986Z,-2.29
2022-11-20T01:13:48.058Z,-2.24
2022-11-20T01:16:39.789Z,-2.20
2022-11-20T01:19:12.198Z,-2.19
2022-11-20T01:21:44.154Z,-2.18
2022-11-20T01:24:14.361Z,-2.17
2022-11-20T01:26:43.719Z,-2.16
2022-11-20T01:29:16.999Z,-2.17
2022-11-20T01:31:45.492Z,-2.21
2022-11-20T01:34:15.071Z,-2.24
2022-11-20T01:36:44.050Z,-2.27
2022-11-20T01:39:15.076Z,-2.30
2022-11-20T01:42:08.382Z,-2.32
2022-11-20T01:44:49.355Z,-2.38
2022-11-20T01:47:39.035Z,-2.42
2022-11-20T01:50:23.219Z,-2.45
2022-11-20T01:52:59.082Z,-2.46
2022-11-20T01:55:30.922Z,-2.47
2022-11-20T01:57:58.812Z,-2.47
2022-11-20T02:00:26.826Z,-2.45
2022-11-20T02:03:04.888Z,-2.41
2022-11-20T02:05:53.131Z,-2.38
2022-11-20T02:08:21.009Z,-2.37
2022-11-20T02:10:48.709Z,-2.34
2022-11-20T02:13:35.450Z,-2.30
2022-11-20T02:16:03.889Z,-2.28
2022-11-20T02:18:31.617Z,-2.25
2022-11-20T02:21:08.358Z,-2.22
2022-11-20T02:23:40.447Z,-2.18
2022-11-20T02:26:10.462Z,-2.13
2022-11-20T02:28:38.475Z,-2.09
2022-11-20T02:31:06.295Z,-2.08
2022-11-20T02:33:33.886Z,-2.05
2022-11-20T02:36:01.646Z,-2.03
2022-11-20T02:38:29.247Z,-2.01
2022-11-20T02:40:56.853Z,-1.99
2022-11-20T02:43:24.485Z,-1.97
2022-11-20T02:45:52.135Z,-1.95
2022-11-20T02:48:19.725Z,-1.94
2022-11-20T02:50:47.383Z,-1.90
2022-11-20T02:53:15.087Z,-1.88
2022-11-20T02:55:42.683Z,-1.87
2022-11-20T02:58:10.302Z,-1.86
2022-11-20T03:00:37.892Z,-1.85
2022-11-20T03:03:05.484Z,-1.83
2022-11-20T03:05:33.211Z,-1.83
2022-11-20T03:08:00.760Z,-1.81
2022-11-20T03:10:28.384Z,-1.79
2022-11-20T03:12:56.560Z,-1.79
2022-11-20T03:15:24.619Z,-1.78
2022-11-20T03:17:56.527Z,-1.78
2022-11-20T03:20:24.391Z,-1.78
2022-11-20T03:22:51.991Z,-1.79
2022-11-20T03:25:19.552Z,-1.79
2022-11-20T03:27:47.160Z,-1.81
2022-11-20T03:30:15.676Z,-1.81
2022-11-20T03:32:43.297Z,-1.82
2022-11-20T03:35:11.078Z,-1.83
2022-11-20T03:37:38.678Z,-1.86
2022-11-20T03:40:07.115Z,-1.86
2022-11-20T03:42:46.749Z,-1.88
2022-11-20T03:45:15.892Z,-1.92
2022-11-20T03:47:44.456Z,-1.95
2022-11-20T03:50:14.099Z,-1.98
2022-11-20T03:52:42.434Z,-2.00
2022-11-20T03:55:10.408Z,-2.05
2022-11-20T03:57:38.075Z,-2.11
2022-11-20T04:00:06.699Z,-2.16
2022-11-20T04:02:34.271Z,-2.20
2022-11-20T04:05:01.868Z,-2.22
2022-11-20T04:07:29.618Z,-2.26
2022-11-20T04:09:57.376Z,-2.33
2022-11-20T04:12:25.075Z,-2.38
2022-11-20T04:14:52.671Z,-2.43
2022-11-20T04:17:20.247Z,-2.49
2022-11-20T04:19:47.828Z,-2.54
2022-11-20T04:22:15.454Z,-2.59
2022-11-20T04:24:43.019Z,-2.64
2022-11-20T04:27:10.592Z,-2.67
2022-11-20T04:29:38.157Z,-2.71
2022-11-20T04:32:05.849Z,-2.76
2022-11-20T04:34:33.551Z,-2.81
2022-11-20T04:37:01.951Z,-2.86
2022-11-20T04:39:29.550Z,-2.92
2022-11-20T04:42:15.983Z,-2.98
2022-11-20T04:44:43.552Z,-3.06
2022-11-20T04:47:11.148Z,-3.11
2022-11-20T04:49:38.750Z,-3.14
2022-11-20T04:52:06.515Z,-3.19
2022-11-20T04:54:34.082Z,-3.24
2022-11-20T04:57:01.651Z,-3.29
2022-11-20T04:59:29.238Z,-3.36
2022-11-20T05:01:57.071Z,-3.43
2022-11-20T05:04:24.898Z,-3.53
2022-11-20T05:06:52.501Z,-3.60
2022-11-20T05:09:20.265Z,-3.66
2022-11-20T05:11:51.439Z,-3.72
2022-11-20T05:14:19.489Z,-3.81
2022-11-20T05:16:47.333Z,-3.90
2022-11-20T05:19:15.037Z,-3.98
2022-11-20T05:21:42.650Z,-4.05
2022-11-20T05:24:10.416Z,-4.12
2022-11-20T05:26:38.043Z,-4.19
2022-11-20T05:29:05.756Z,-4.28
2022-11-20T05:31:33.526Z,-4.35
2022-11-20T05:34:01.187Z,-4.41
2022-11-20T05:36:28.789Z,-4.44
2022-11-20T05:39:01.273Z,-4.44
2022-11-20T05:41:30.715Z,-4.48
2022-11-20T05:43:59.388Z,-4.50
2022-11-20T05:46:29.269Z,-4.51
2022-11-20T05:48:58.951Z,-4.52
2022-11-20T05:51:26.839Z,-4.53
2022-11-20T05:53:56.947Z,-4.55
2022-11-20T05:56:24.550Z,-4.60
2022-11-20T05:58:52.169Z,-4.64
2022-11-20T06:01:22.545Z,-4.66
2022-11-20T06:03:51.654Z,-4.66
2022-11-20T06:06:20.826Z,-4.66
2022-11-20T06:08:48.973Z,-4.65
2022-11-20T06:11:17.721Z,-4.64
2022-11-20T06:13:46.533Z,-4.64
2022-11-20T06:16:16.914Z,-4.63
2022-11-20T06:18:44.505Z,-4.64
2022-11-20T06:21:18.074Z,-4.64
2022-11-20T06:23:46.409Z,-4.66
2022-11-20T06:26:16.724Z,-4.63
2022-11-20T06:28:44.666Z,-4.64
2022-11-20T06:31:14.514Z,-4.63
2022-11-20T06:33:42.745Z,-4.62
2022-11-20T06:36:12.286Z,-4.59
2022-11-20T06:38:40.365Z,-4.55
2022-11-20T06:41:12.091Z,-4.52
2022-11-20T06:43:39.934Z,-4.48
2022-11-20T06:46:07.811Z,-4.42
2022-11-20T06:48:35.384Z,-4.35
2022-11-20T06:51:07.366Z,-4.28
2022-11-20T06:53:35.737Z,-4.20
2022-11-20T06:56:03.857Z,-4.11
2022-11-20T06:58:34.061Z,-4.01
2022-11-20T07:01:03.716Z,-3.90
2022-11-20T07:03:31.800Z,-3.79
2022-11-20T07:06:01.132Z,-3.67
2022-11-20T07:08:29.135Z,-3.56
2022-11-20T07:11:01.181Z,-3.43
2022-11-20T07:13:29.604Z,-3.31
2022-11-20T07:16:01.058Z,-3.17
2022-11-20T07:18:28.714Z,-3.03
2022-11-20T07:20:56.692Z,-2.89
2022-11-20T07:23:24.322Z,-2.75
2022-11-20T07:25:51.924Z,-2.61
2022-11-20T07:28:19.535Z,-2.48
2022-11-20T07:30:53.888Z,-2.29
2022-11-20T07:33:22.042Z,-1.98
2022-11-20T07:35:49.740Z,-1.53
2022-11-20T07:38:17.346Z,-0.90
2022-11-20T07:40:45.118Z,-0.53
2022-11-20T07:43:12.752Z,-0.32
2022-11-20T07:45:40.822Z,-0.24
2022-11-20T07:48:08.410Z,-0.22
2022-11-20T07:50:35.970Z,-0.26
2022-11-20T07:53:05.335Z,-0.37
2022-11-20T07:55:33.280Z,-0.47
2022-11-20T07:58:00.923Z,-0.51
2022-11-20T08:00:28.626Z,-0.53
2022-11-20T08:02:56.444Z,-0.46
2022-11-20T08:05:24.326Z,-0.37
2022-11-20T08:07:51.910Z,-0.23
2022-11-20T08:10:19.744Z,-0.06
2022-11-20T08:13:08.038Z,0.03
2022-11-20T08:15:36.435Z,0.12
2022-11-20T08:21:04.459Z,0.28
2022-11-20T08:23:32.157Z,0.39
2022-11-20T08:25:59.775Z,0.46
2022-11-20T08:28:27.361Z,0.53
2022-11-20T08:30:59.758Z,0.55
2022-11-20T08:33:27.408Z,0.55
2022-11-20T08:36:00.031Z,0.51
2022-11-20T08:38:27.642Z,0.47
2022-11-20T08:41:21.008Z,0.45
2022-11-20T08:43:48.619Z,0.48
2022-11-20T08:46:16.225Z,0.46
2022-11-20T08:48:44.539Z,0.46
2022-11-20T08:51:12.920Z,0.46
2022-11-20T08:53:40.806Z,0.49
2022-11-20T08:56:10.451Z,0.55
2022-11-20T08:59:01.931Z,0.56
2022-11-20T09:01:27.523Z,0.55
2022-11-20T09:03:58.716Z,0.59
2022-11-20T09:06:26.758Z,0.63
2022-11-20T09:08:54.809Z,0.68
2022-11-20T09:11:22.829Z,0.72
2022-11-20T09:13:50.555Z,0.73
2022-11-20T09:16:18.204Z,0.73
2022-11-20T09:18:45.823Z,0.71
2022-11-20T09:21:14.891Z,0.68
2022-11-20T09:23:42.568Z,0.68
2022-11-20T09:26:11.864Z,0.70
2022-11-20T09:28:39.982Z,0.74
2022-11-20T09:31:22.870Z,0.81
2022-11-20T09:33:50.977Z,0.92
2022-11-20T09:36:19.670Z,1.02
2022-11-20T09:38:47.705Z,1.12
2022-11-20T09:41:18.434Z,1.22
2022-11-20T09:43:51.656Z,1.31
2022-11-20T09:46:38.073Z,1.36
2022-11-20T09:49:30.690Z,1.36
2022-11-20T09:52:27.888Z,1.37
2022-11-20T09:54:56.036Z,1.38
2022-11-20T09:57:36.741Z,1.38
2022-11-20T10:00:06.662Z,1.36
2022-11-20T10:02:53.808Z,1.36
2022-11-20T10:05:26.122Z,1.38
2022-11-20T10:08:10.724Z,1.42
2022-11-20T10:10:53.594Z,1.49
2022-11-20T10:13:47.571Z,1.58
2022-11-20T10:16:44.376Z,1.67
2022-11-20T10:19:33.741Z,1.70
2022-11-20T10:22:16.788Z,1.72
2022-11-20T10:25:05.637Z,1.78
2022-11-20T10:28:11.360Z,1.83
2022-11-20T10:30:42.817Z,1.90
2022-11-20T10:33:17.420Z,1.96
2022-11-20T10:36:22.349Z,1.99
2022-11-20T10:38:55.229Z,2.01
2022-11-20T10:41:30.870Z,2.07
2022-11-20T10:44:42.402Z,2.09
2022-11-20T10:47:15.170Z,2.06
2022-11-20T10:49:44.652Z,2.03
2022-11-20T10:52:17.375Z,2.04
2022-11-20T10:55:11.334Z,2.09
2022-11-20T10:57:53.622Z,2.09
2022-11-20T11:00:21.221Z,2.11
2022-11-20T11:02:54.188Z,2.15
2022-11-20T11:05:41.152Z,2.16
2022-11-20T11:08:15.460Z,2.17
2022-11-20T11:10:49.075Z,2.17
2022-11-20T11:13:28.300Z,2.19
2022-11-20T11:15:56.470Z,2.19
2022-11-20T11:18:32.669Z,2.17
2022-11-20T11:21:03.050Z,2.15
2022-11-20T11:23:35.353Z,2.16
2022-11-20T11:26:05.776Z,2.17
2022-11-20T11:28:34.271Z,2.23
2022-11-20T11:31:02.017Z,2.27
2022-11-20T11:33:32.514Z,2.25
2022-11-20T11:36:19.252Z,2.25
2022-11-20T11:38:46.859Z,2.19
2022-11-20T11:41:19.067Z,2.17
2022-11-20T11:44:17.460Z,2.22
2022-11-20T11:46:51.158Z,2.28
2022-11-20T11:49:20.368Z,2.38
2022-11-20T11:52:02.278Z,2.45
2022-11-20T11:54:52.538Z,2.48
2022-11-20T11:57:52.963Z,2.52
2022-11-20T12:00:22.139Z,2.49
2022-11-20T12:02:58.583Z,2.42
2022-11-20T12:05:44.231Z,2.39
2022-11-20T12:08:25.468Z,2.40
2022-11-20T12:11:07.706Z,2.44
2022-11-20T12:13:35.240Z,2.42
2022-11-20T12:16:04.207Z,2.43
2022-11-20T12:18:32.647Z,2.46
2022-11-20T12:21:21.397Z,2.44
2022-11-20T12:24:02.850Z,2.34
2022-11-20T12:26:45.823Z,2.24
2022-11-20T12:29:46.053Z,2.22
2022-11-20T12:32:16.416Z,2.17
2022-11-20T12:35:11.283Z,2.19
2022-11-20T12:37:51.120Z,2.19
2022-11-20T12:40:25.268Z,2.21
2022-11-20T12:43:36.496Z,2.28
2022-11-20T12:46:42.153Z,2.31
2022-11-20T12:49:31.297Z,2.30
2022-11-20T12:52:05.936Z,2.33
2022-11-20T12:54:57.863Z,2.43
2022-11-20T12:57:51.095Z,2.49
2022-11-20T13:00:23.424Z,2.49
2022-11-20T13:03:00.398Z,2.49
2022-11-20T13:05:52.487Z,2.51
2022-11-20T13:08:26.607Z,2.52
2022-11-20T13:11:20.010Z,2.50
2022-11-20T13:14:12.517Z,2.46
2022-11-20T13:16:51.352Z,2.41
2022-11-20T13:19:19.316Z,2.39
2022-11-20T13:21:52.450Z,2.42
2022-11-20T13:24:20.464Z,2.44
2022-11-20T13:26:48.355Z,2.43
2022-11-20T13:29:20.082Z,2.38
2022-11-20T13:31:49.133Z,2.31
2022-11-20T13:34:26.861Z,2.23
2022-11-20T13:36:57.459Z,2.17
2022-11-20T13:39:29.710Z,2.15
2022-11-20T13:42:21.834Z,2.11
2022-11-20T13:44:55.128Z,2.04
2022-11-20T13:47:28.003Z,1.97
2022-11-20T13:50:00.424Z,1.93
2022-11-20T13:53:10.600Z,1.91
2022-11-20T13:55:52.973Z,1.82
2022-11-20T13:58:52.530Z,1.77
2022-11-20T14:01:25.317Z,1.67
2022-11-20T14:04:09.356Z,1.59
2022-11-20T14:06:45.208Z,1.51
2022-11-20T14:09:14.836Z,1.44
2022-11-20T14:11:48.906Z,1.38
2022-11-20T14:14:22.234Z,1.32
2022-11-20T14:16:51.033Z,1.26
2022-11-20T14:19:21.458Z,1.21
2022-11-20T14:21:54.596Z,1.19
2022-11-20T14:24:24.969Z,1.15
2022-11-20T14:26:53.390Z,1.06
2022-11-20T14:29:24.903Z,1.02
2022-11-20T14:31:54.508Z,0.94
2022-11-20T14:34:26.665Z,0.87
2022-11-20T14:37:00.048Z,0.79
2022-11-20T14:39:33.021Z,0.72
2022-11-20T14:42:00.902Z,0.65
2022-11-20T14:44:33.299Z,0.61
2022-11-20T14:47:03.044Z,0.56
2022-11-20T14:49:32.168Z,0.52
2022-11-20T14:52:11.658Z,0.48
2022-11-20T14:54:50.646Z,0.45
2022-11-20T14:57:24.546Z,0.40
2022-11-20T14:59:52.833Z,0.35
2022-11-20T15:02:20.466Z,0.32
2022-11-20T15:04:58.239Z,0.28
2022-11-20T15:07:31.743Z,0.23
2022-11-20T15:10:19.396Z,0.20
2022-11-20T15:12:52.749Z,0.16
2022-11-20T15:15:31.219Z,0.12
2022-11-20T15:17:59.407Z,0.08
2022-11-20T15:20:30.568Z,0.05
2022-11-20T15:22:58.235Z,0.01
2022-11-20T15:25:26.251Z,-0.00
2022-11-20T15:27:57.043Z,-0.01
2022-11-20T15:30:25.026Z,-0.03
2022-11-20T15:32:52.814Z,-0.07
2022-11-20T15:35:20.521Z,-0.11
2022-11-20T15:37:48.108Z,-0.15
2022-11-20T15:40:15.810Z,-0.19
2022-11-20T15:43:06.797Z,-0.22
2022-11-20T15:45:44.715Z,-0.28
2022-11-20T15:48:15.407Z,-0.33
2022-11-20T15:50:52.354Z,-0.37
2022-11-20T15:53:20.044Z,-0.39
2022-11-20T15:55:47.699Z,-0.40
2022-11-20T15:58:15.672Z,-0.42
2022-11-20T16:00:43.803Z,-0.44
2022-11-20T16:03:15.581Z,-0.47
2022-11-20T16:05:43.367Z,-0.49
2022-11-20T16:08:11.937Z,-0.52
2022-11-20T16:10:40.818Z,-0.56
2022-11-20T16:13:32.861Z,-0.60
2022-11-20T16:16:05.834Z,-0.64
2022-11-20T16:18:34.106Z,-0.66
2022-11-20T16:21:02.088Z,-0.68
2022-11-20T16:23:29.842Z,-0.69
2022-11-20T16:25:57.400Z,-0.71
2022-11-20T16:28:25.635Z,-0.72
2022-11-20T16:30:53.222Z,-0.73
2022-11-20T16:33:20.795Z,-0.75
2022-11-20T16:35:48.618Z,-0.76
2022-11-20T16:38:16.224Z,-0.80
2022-11-20T16:40:43.825Z,-0.87
2022-11-20T16:43:12.284Z,-0.93
2022-11-20T16:45:43.973Z,-0.97
2022-11-20T16:48:16.180Z,-0.99
2022-11-20T16:50:49.692Z,-1.01
2022-11-20T16:53:18.936Z,-1.02
2022-11-20T16:55:47.222Z,-1.01
2022-11-20T16:58:15.796Z,-0.99
2022-11-20T17:00:48.353Z,-0.98
2022-11-20T17:03:17.711Z,-0.98
2022-11-20T17:05:45.282Z,-1.00
2022-11-20T17:08:12.912Z,-1.00
2022-11-20T17:10:40.620Z,-0.99
2022-11-20T17:13:08.206Z,-1.00
2022-11-20T17:15:35.773Z,-1.01
2022-11-20T17:18:03.567Z,-1.03
2022-11-20T17:20:32.506Z,-1.04
2022-11-20T17:23:00.114Z,-1.05
2022-11-20T17:25:27.692Z,-1.06
2022-11-20T17:27:55.625Z,-1.08
2022-11-20T17:30:23.277Z,-1.11
2022-11-20T17:32:50.884Z,-1.13
2022-11-20T17:35:18.477Z,-1.15
2022-11-20T17:37:46.059Z,-1.17
2022-11-20T17:40:13.726Z,-1.18
2022-11-20T17:42:41.636Z,-1.21
2022-11-20T17:45:09.280Z,-1.22
2022-11-20T17:47:39.534Z,-1.23
2022-11-20T17:50:07.723Z,-1.26
2022-11-20T17:52:35.639Z,-1.27
2022-11-20T17:55:03.356Z,-1.29
2022-11-20T17:57:49.647Z,-1.31
2022-11-20T18:00:18.183Z,-1.34
2022-11-20T18:02:46.064Z,-1.37
2022-11-20T18:05:13.788Z,-1.39
2022-11-20T18:07:42.117Z,-1.42
2022-11-20T18:10:10.329Z,-1.44
2022-11-20T18:12:38.011Z,-1.47
2022-11-20T18:15:05.879Z,-1.49
2022-11-20T18:17:33.890Z,-1.52
2022-11-20T18:20:27.159Z,-1.54
2022-11-20T18:22:49.098Z,-1.58
2022-11-20T18:25:16.828Z,-1.61
2022-11-20T18:27:45.243Z,-1.63
2022-11-20T18:30:13.565Z,-1.67
2022-11-20T18:32:41.213Z,-1.69
2022-11-20T18:35:09.315Z,-1.71
2022-11-20T18:37:36.942Z,-1.71
2022-11-20T18:40:04.894Z,-1.72
2022-11-20T18:42:51.102Z,-1.73
2022-11-20T18:45:18.669Z,-1.74
2022-11-20T18:47:46.284Z,-1.76
2022-11-20T18:50:13.852Z,-1.76
2022-11-20T18:52:44.527Z,-1.75
2022-11-20T18:55:12.923Z,-1.75
2022-11-20T18:57:40.970Z,-1.74
2022-11-20T19:00:10.110Z,-1.74
2022-11-20T19:02:42.033Z,-1.77
2022-11-20T19:05:12.617Z,-1.79
2022-11-20T19:07:40.930Z,-1.81
2022-11-20T19:13:28.667Z,-1.86
2022-11-20T19:16:03.411Z,-1.86
2022-11-20T19:18:32.182Z,-1.84
2022-11-20T19:21:15.318Z,-1.82
2022-11-20T19:23:43.576Z,-1.81
2022-11-20T19:26:11.200Z,-1.79
2022-11-20T19:28:39.553Z,-1.77
2022-11-20T19:31:10.226Z,-1.73
2022-11-20T19:33:38.465Z,-1.73
2022-11-20T19:36:15.587Z,-1.73
2022-11-20T19:38:49.831Z,-1.74
2022-11-20T19:41:20.138Z,-1.74
2022-11-20T19:43:49.910Z,-1.75
2022-11-20T19:46:18.791Z,-1.74
2022-11-20T19:48:46.813Z,-1.76
2022-11-20T19:51:16.958Z,-1.77
2022-11-20T19:53:44.731Z,-1.78
2022-11-20T19:56:12.446Z,-1.81
2022-11-20T19:58:40.397Z,-1.82
2022-11-20T20:01:11.844Z,-1.84
2022-11-20T20:03:40.088Z,-1.86
2022-11-20T20:06:10.567Z,-1.87
2022-11-20T20:08:38.157Z,-1.90
2022-11-20T20:11:17.908Z,-1.92
2022-11-20T20:13:47.256Z,-1.93
2022-11-20T20:16:17.679Z,-1.92
2022-11-20T20:18:45.623Z,-1.93
2022-11-20T20:21:15.458Z,-1.95
2022-11-20T20:23:44.098Z,-1.95
2022-11-20T20:26:12.421Z,-1.98
2022-11-20T20:28:40.263Z,-1.98
2022-11-20T20:31:10.126Z,-2.00
2022-11-20T20:33:39.507Z,-2.01
2022-11-20T20:36:09.004Z,-1.99
2022-11-20T20:38:36.580Z,-2.00
2022-11-20T20:41:04.659Z,-2.01
2022-11-20T20:43:52.240Z,-2.00
2022-11-20T20:46:20.563Z,-2.04
2022-11-20T20:48:54.042Z,-2.05
2022-11-20T20:51:23.127Z,-2.06
2022-11-20T20:53:51.084Z,-2.08
2022-11-20T20:56:18.739Z,-2.08
2022-11-20T20:58:46.358Z,-2.08
2022-11-20T21:01:15.748Z,-2.10
2022-11-20T21:03:43.483Z,-2.11
2022-11-20T21:06:11.769Z,-2.11
2022-11-20T21:08:41.132Z,-2.10
2022-11-20T21:11:12.483Z,-2.08
2022-11-20T21:13:42.779Z,-2.08
2022-11-20T21:16:11.882Z,-2.09
2022-11-20T21:18:39.484Z,-2.10
2022-11-20T21:21:27.495Z,-2.12
2022-11-20T21:23:55.159Z,-2.14
2022-11-20T21:26:22.839Z,-2.16
2022-11-20T21:28:50.557Z,-2.17
2022-11-20T21:31:22.119Z,-2.20
2022-11-20T21:33:51.115Z,-2.22
2022-11-20T21:36:20.692Z,-2.26
2022-11-20T21:38:49.080Z,-2.29
2022-11-20T21:41:16.719Z,-2.31
2022-11-20T21:43:44.467Z,-2.32
2022-11-20T21:46:14.159Z,-2.32
2022-11-20T21:48:43.155Z,-2.33
2022-11-20T21:51:13.118Z,-2.34
2022-11-20T21:53:41.270Z,-2.36
2022-11-20T21:56:10.407Z,-2.37
2022-11-20T21:58:39.204Z,-2.38
2022-11-20T22:01:15.987Z,-2.39
2022-11-20T22:03:47.067Z,-2.40
2022-11-20T22:06:14.763Z,-2.40
2022-11-20T22:08:42.775Z,-2.39
2022-11-20T22:11:14.748Z,-2.39
2022-11-20T22:14:01.390Z,-2.39
2022-11-20T22:16:29.291Z,-2.41
2022-11-20T22:18:57.740Z,-2.41
2022-11-20T22:21:27.397Z,-2.43
2022-11-20T22:23:55.615Z,-2.43
2022-11-20T22:26:25.441Z,-2.43
2022-11-20T22:28:55.039Z,-2.45
2022-11-20T22:31:24.903Z,-2.48
2022-11-20T22:33:52.618Z,-2.49
2022-11-20T22:36:22.220Z,-2.51
2022-11-20T22:38:50.032Z,-2.52
2022-11-20T22:41:22.755Z,-2.54
2022-11-20T22:43:56.555Z,-2.55
2022-11-20T22:46:25.343Z,-2.57
2022-11-20T22:48:54.997Z,-2.58
2022-11-20T22:51:25.247Z,-2.61
2022-11-20T22:53:53.288Z,-2.62
2022-11-20T22:56:21.735Z,-2.64
2022-11-20T22:58:51.913Z,-2.66
2022-11-20T23:01:22.032Z,-2.69
2022-11-20T23:03:51.292Z,-2.70
2022-11-20T23:06:20.042Z,-2.72
2022-11-20T23:08:48.418Z,-2.74
2022-11-20T23:11:18.467Z,-2.74
2022-11-20T23:13:46.556Z,-2.76
2022-11-20T23:16:16.745Z,-2.76
2022-11-20T23:18:44.613Z,-2.77
2022-11-20T23:21:17.914Z,-2.80
2022-11-20T23:23:49.984Z,-2.84
2022-11-20T23:26:19.665Z,-2.89
2022-11-20T23:28:47.685Z,-2.94
2022-11-20T23:31:16.190Z,-2.97
2022-11-20T23:33:45.770Z,-3.00
2022-11-20T23:36:13.815Z,-3.03
2022-11-20T23:38:41.798Z,-3.04
2022-11-20T23:41:09.432Z,-3.05
2022-11-20T23:43:37.168Z,-3.04
2022-11-20T23:46:05.761Z,-3.04
2022-11-20T23:48:35.890Z,-3.03
2022-11-20T23:51:04.959Z,-3.04
2022-11-20T23:53:32.935Z,-3.05
2022-11-20T23:56:02.554Z,-3.06
2022-11-20T23:58:32.827Z,-3.06
